createdAt,value
2024-02-19T00:02:24.042Z,5.37
2024-02-19T00:17:26.150Z,5.59
2024-02-19T00:32:28.215Z,5.76
2024-02-19T00:47:30.417Z,5.7
2024-02-19T01:02:32.487Z,5.66
2024-02-19T01:17:34.501Z,5.48
2024-02-19T01:32:36.615Z,5.88
2024-02-19T01:47:38.732Z,5.79
2024-02-19T02:02:40.816Z,5.24
2024-02-19T02:17:42.860Z,4.73
2024-02-19T02:32:44.885Z,4.89
2024-02-19T02:47:46.969Z,5.62
2024-02-19T03:02:49.057Z,5.61
2024-02-19T03:17:51.061Z,4.85
2024-02-19T03:32:53.224Z,4.99
2024-02-19T03:47:55.505Z,5.15
2024-02-19T04:02:57.692Z,4.83
2024-02-19T04:17:59.904Z,4.98
2024-02-19T04:33:02.203Z,5.09
2024-02-19T04:48:04.456Z,5.22
2024-02-19T05:03:06.445Z,5.25
2024-02-19T05:18:08.672Z,4.06
2024-02-19T05:33:11.940Z,4.93
2024-02-19T05:48:14.426Z,4.67
2024-02-19T06:03:16.540Z,5.03
2024-02-19T06:18:18.622Z,3.71
2024-02-19T06:33:20.685Z,4.34
2024-02-19T06:48:22.772Z,4.69
2024-02-19T07:03:24.792Z,5.11
2024-02-19T07:18:26.929Z,4.66
2024-02-19T07:33:29.302Z,4.75
2024-02-19T07:48:31.536Z,4.78
2024-02-19T08:03:33.753Z,4.75
2024-02-19T08:18:35.886Z,4.04
2024-02-19T08:33:38.202Z,4.43
2024-02-19T08:48:40.270Z,4.6
2024-02-19T09:03:42.393Z,4.69
2024-02-19T09:18:44.640Z,4.29
2024-02-19T09:33:46.693Z,4.87
2024-02-19T09:48:48.957Z,4.7
2024-02-19T10:03:51.087Z,4.47
2024-02-19T10:18:53.213Z,4.62
2024-02-19T10:33:55.961Z,3.23
2024-02-19T10:48:58.555Z,4.4
2024-02-19T11:04:00.655Z,4.13
2024-02-19T11:19:02.752Z,4.22
2024-02-19T11:34:04.968Z,3.54
2024-02-19T11:49:07.070Z,4.13
2024-02-19T12:04:09.244Z,4.46
2024-02-19T12:19:11.366Z,4.63
2024-02-19T12:34:13.477Z,4.9
2024-02-19T12:49:15.731Z,4.69
2024-02-19T13:04:17.869Z,4.3
2024-02-19T13:19:19.981Z,3.06
2024-02-19T13:34:22.230Z,4.23
2024-02-19T13:49:24.885Z,4.18
2024-02-19T14:04:27.175Z,4.06
2024-02-19T14:19:29.312Z,4.15
2024-02-19T14:34:31.374Z,3.92
2024-02-19T14:49:33.605Z,3.26
2024-02-19T15:04:35.827Z,3.59
2024-02-19T15:19:37.954Z,3.71
2024-02-19T15:34:40.107Z,3.51
2024-02-19T15:49:42.287Z,4.14
2024-02-19T16:04:44.510Z,4
2024-02-19T16:19:46.694Z,3.79
2024-02-19T16:34:48.845Z,3.84
2024-02-19T16:49:51.034Z,4.37
2024-02-19T17:04:53.763Z,4.31
2024-02-19T17:19:56.073Z,5.21
2024-02-19T17:34:58.218Z,5.62
2024-02-19T17:50:00.567Z,6.39
2024-02-19T18:05:02.614Z,7.2
2024-02-19T18:20:04.753Z,7.95
2024-02-19T18:35:06.865Z,8.5
2024-02-19T18:50:09.064Z,8.05
2024-02-19T19:05:11.256Z,6.74
2024-02-19T19:20:13.751Z,7.97
2024-02-19T19:35:16.106Z,7.87
2024-02-19T19:50:18.308Z,7.67
2024-02-19T20:05:20.365Z,7.28
2024-02-19T20:20:22.422Z,6.77
2024-02-19T20:35:24.512Z,6.68
2024-02-19T20:50:26.514Z,6.85
2024-02-19T21:05:28.544Z,7.59
2024-02-19T21:20:30.751Z,8.26
2024-02-19T21:35:32.951Z,8.81
2024-02-19T21:50:35.014Z,7.22
2024-02-19T22:05:37.149Z,6.76
2024-02-19T22:20:39.340Z,6.81
2024-02-19T22:35:41.491Z,6.76
2024-02-19T22:50:43.682Z,6.83
2024-02-19T23:05:45.920Z,6.26
2024-02-19T23:20:47.987Z,6.48
2024-02-19T23:35:50.149Z,7.7
2024-02-19T23:50:52.249Z,7.52
